首页
METAR-TAF:

METAR-TAF

机场 :

Roi Et, 泰国

纬度: 16-07-00N, 经度: 103-46-26E, 海拔: 138米

当前天气观测

该预报发布于17分钟前的23:00 UTC
风速5节,风向
温度 26°C
湿度 70%
气压 1013 hPa
能見度: 5000
散云层高于4000英尺
轻雾

METAR: VTUV 262300Z 10005KT 5000 BR SCT040 26/20 Q1013 NOSIG

时间: 06:17 (23:17 UTC)

预报

该预报发布于6小时和17分钟前的17:00 UTC
预报有效从26日的 18点(UTC)到 27日的 18点(UTC)
风速3节,风向南转南东
能見度: 7000
成为
从 26日的 21点(UTC)到 26日的 23点(UTC)
能見度: 5000
轻雾
成为
从 27日的 01点(UTC)到 27日的 03点(UTC)
能見度: 6000

TAF: VTUV 261700Z 2618/2718 15003KT 7000 NSC BECMG 2621/2623 5000 BR NSC BECMG 2701/2703 6000 NSW

超过4000个机场的气象观测和天气预报(METAR&TAF报告)。

可查询的气象台以黄色和红色小点在地图上表示。

将鼠标移到小点上方,可查看气象台名称。

然后点击查看天气观测和预报。

如需切换地图:点击带黑十字的绿色按钮放大地图;点击带横线的绿色按钮缩小地图;或者点击绿色箭头查看邻近地区的地图。


METAR-TAF: